sensor_id;sensor_type;location;lat;lon;timestamp;P1;durP1;ratioP1;P2;durP2;ratioP2
1779;SDS011;10019;46.670;14.260;2022-07-29T00:00:55;6.57;;;4.80;;
1779;SDS011;10019;46.670;14.260;2022-07-29T00:03:27;6.00;;;5.07;;
1779;SDS011;10019;46.670;14.260;2022-07-29T00:05:58;5.57;;;5.07;;
1779;SDS011;10019;46.670;14.260;2022-07-29T00:08:30;5.43;;;4.93;;
1779;SDS011;10019;46.670;14.260;2022-07-29T00:11:03;4.83;;;4.40;;
1779;SDS011;10019;46.670;14.260;2022-07-29T00:13:35;5.47;;;4.97;;
1779;SDS011;10019;46.670;14.260;2022-07-29T00:16:07;5.13;;;4.70;;
1779;SDS011;10019;46.670;14.260;2022-07-29T00:18:38;4.80;;;4.40;;
1779;SDS011;10019;46.670;14.260;2022-07-29T00:21:10;5.23;;;4.73;;
1779;SDS011;10019;46.670;14.260;2022-07-29T00:23:42;8.43;;;5.27;;
1779;SDS011;10019;46.670;14.260;2022-07-29T00:26:15;6.53;;;4.40;;
1779;SDS011;10019;46.670;14.260;2022-07-29T00:28:46;5.23;;;4.77;;
1779;SDS011;10019;46.670;14.260;2022-07-29T00:31:18;6.33;;;4.50;;
1779;SDS011;10019;46.670;14.260;2022-07-29T00:33:50;7.60;;;5.17;;
1779;SDS011;10019;46.670;14.260;2022-07-29T00:36:21;5.50;;;4.90;;
1779;SDS011;10019;46.670;14.260;2022-07-29T00:38:52;5.07;;;4.57;;
1779;SDS011;10019;46.670;14.260;2022-07-29T00:41:25;6.20;;;5.30;;
1779;SDS011;10019;46.670;14.260;2022-07-29T00:43:57;6.27;;;5.40;;
1779;SDS011;10019;46.670;14.260;2022-07-29T00:46:29;6.20;;;4.90;;
1779;SDS011;10019;46.670;14.260;2022-07-29T00:49:00;6.17;;;5.57;;
1779;SDS011;10019;46.670;14.260;2022-07-29T00:51:32;6.50;;;5.57;;
1779;SDS011;10019;46.670;14.260;2022-07-29T00:54:04;8.27;;;5.57;;
1779;SDS011;10019;46.670;14.260;2022-07-29T00:56:37;6.40;;;5.43;;
1779;SDS011;10019;46.670;14.260;2022-07-29T00:59:09;6.10;;;5.30;;
1779;SDS011;10019;46.670;14.260;2022-07-29T01:01:41;5.97;;;5.47;;
1779;SDS011;10019;46.670;14.260;2022-07-29T01:04:12;5.70;;;5.20;;
1779;SDS011;10019;46.670;14.260;2022-07-29T01:06:44;6.13;;;5.03;;
1779;SDS011;10019;46.670;14.260;2022-07-29T01:09:15;5.33;;;4.63;;
1779;SDS011;10019;46.670;14.260;2022-07-29T01:11:49;6.03;;;5.43;;
1779;SDS011;10019;46.670;14.260;2022-07-29T01:14:21;5.67;;;5.27;;
1779;SDS011;10019;46.670;14.260;2022-07-29T01:16:54;6.03;;;5.43;;
1779;SDS011;10019;46.670;14.260;2022-07-29T01:19:34;6.80;;;6.20;;
1779;SDS011;10019;46.670;14.260;2022-07-29T01:22:25;7.97;;;6.17;;
1779;SDS011;10019;46.670;14.260;2022-07-29T01:25:06;5.97;;;5.40;;
1779;SDS011;10019;46.670;14.260;2022-07-29T01:27:47;6.27;;;5.67;;
1779;SDS011;10019;46.670;14.260;2022-07-29T01:30:28;6.57;;;5.93;;
1779;SDS011;10019;46.670;14.260;2022-07-29T01:33:02;5.83;;;5.23;;
1779;SDS011;10019;46.670;14.260;2022-07-29T01:35:36;6.40;;;5.80;;
1779;SDS011;10019;46.670;14.260;2022-07-29T01:38:10;6.47;;;5.70;;
1779;SDS011;10019;46.670;14.260;2022-07-29T01:40:46;6.70;;;6.10;;
1779;SDS011;10019;46.670;14.260;2022-07-29T01:43:20;8.63;;;5.57;;
1779;SDS011;10019;46.670;14.260;2022-07-29T01:46:00;6.13;;;5.50;;
1779;SDS011;10019;46.670;14.260;2022-07-29T01:48:34;6.27;;;5.67;;
1779;SDS011;10019;46.670;14.260;2022-07-29T01:51:10;6.57;;;5.93;;
1779;SDS011;10019;46.670;14.260;2022-07-29T01:53:47;5.93;;;5.43;;
1779;SDS011;10019;46.670;14.260;2022-07-29T01:56:22;8.07;;;6.17;;
1779;SDS011;10019;46.670;14.260;2022-07-29T01:58:54;6.30;;;5.70;;
1779;SDS011;10019;46.670;14.260;2022-07-29T02:01:28;5.93;;;5.33;;
1779;SDS011;10019;46.670;14.260;2022-07-29T02:04:02;6.80;;;6.20;;
1779;SDS011;10019;46.670;14.260;2022-07-29T02:06:35;6.67;;;6.07;;
1779;SDS011;10019;46.670;14.260;2022-07-29T02:09:09;7.67;;;5.50;;
1779;SDS011;10019;46.670;14.260;2022-07-29T02:11:42;6.70;;;6.00;;
1779;SDS011;10019;46.670;14.260;2022-07-29T02:14:20;7.40;;;5.90;;
1779;SDS011;10019;46.670;14.260;2022-07-29T02:16:54;6.57;;;5.97;;
1779;SDS011;10019;46.670;14.260;2022-07-29T02:19:27;6.83;;;5.87;;
1779;SDS011;10019;46.670;14.260;2022-07-29T02:21:59;9.50;;;6.10;;
1779;SDS011;10019;46.670;14.260;2022-07-29T02:24:31;6.83;;;5.70;;
1779;SDS011;10019;46.670;14.260;2022-07-29T02:27:04;6.73;;;6.13;;
1779;SDS011;10019;46.670;14.260;2022-07-29T02:29:36;5.80;;;5.30;;
1779;SDS011;10019;46.670;14.260;2022-07-29T02:32:09;7.00;;;5.80;;
1779;SDS011;10019;46.670;14.260;2022-07-29T02:34:42;8.30;;;6.00;;
1779;SDS011;10019;46.670;14.260;2022-07-29T02:37:14;6.13;;;5.53;;
1779;SDS011;10019;46.670;14.260;2022-07-29T02:39:48;6.97;;;6.27;;
1779;SDS011;10019;46.670;14.260;2022-07-29T02:42:20;7.03;;;6.13;;
1779;SDS011;10019;46.670;14.260;2022-07-29T02:44:53;5.87;;;5.27;;
1779;SDS011;10019;46.670;14.260;2022-07-29T02:47:27;6.50;;;5.90;;
1779;SDS011;10019;46.670;14.260;2022-07-29T02:50:04;6.40;;;5.80;;
1779;SDS011;10019;46.670;14.260;2022-07-29T02:52:39;7.13;;;6.30;;
1779;SDS011;10019;46.670;14.260;2022-07-29T02:55:15;7.33;;;6.17;;
1779;SDS011;10019;46.670;14.260;2022-07-29T02:57:51;9.50;;;6.60;;
1779;SDS011;10019;46.670;14.260;2022-07-29T03:00:26;6.80;;;6.20;;
1779;SDS011;10019;46.670;14.260;2022-07-29T03:03:01;7.00;;;6.30;;
1779;SDS011;10019;46.670;14.260;2022-07-29T03:05:35;7.73;;;6.20;;
1779;SDS011;10019;46.670;14.260;2022-07-29T03:08:08;6.67;;;6.07;;
1779;SDS011;10019;46.670;14.260;2022-07-29T03:10:42;7.33;;;6.50;;
1779;SDS011;10019;46.670;14.260;2022-07-29T03:13:15;7.87;;;7.07;;
1779;SDS011;10019;46.670;14.260;2022-07-29T03:15:47;6.87;;;6.17;;
1779;SDS011;10019;46.670;14.260;2022-07-29T03:18:20;7.47;;;6.70;;
1779;SDS011;10019;46.670;14.260;2022-07-29T03:20:52;6.87;;;6.27;;
1779;SDS011;10019;46.670;14.260;2022-07-29T03:23:24;7.90;;;7.00;;
1779;SDS011;10019;46.670;14.260;2022-07-29T03:25:57;7.03;;;6.37;;
1779;SDS011;10019;46.670;14.260;2022-07-29T03:28:29;7.30;;;6.57;;
1779;SDS011;10019;46.670;14.260;2022-07-29T03:31:01;7.43;;;6.73;;
1779;SDS011;10019;46.670;14.260;2022-07-29T03:33:34;8.03;;;7.23;;
1779;SDS011;10019;46.670;14.260;2022-07-29T03:36:06;7.87;;;6.83;;
1779;SDS011;10019;46.670;14.260;2022-07-29T03:38:37;7.67;;;6.97;;
1779;SDS011;10019;46.670;14.260;2022-07-29T03:41:11;7.17;;;6.47;;
1779;SDS011;10019;46.670;14.260;2022-07-29T03:43:44;8.83;;;6.53;;
1779;SDS011;10019;46.670;14.260;2022-07-29T03:46:17;7.40;;;6.70;;
1779;SDS011;10019;46.670;14.260;2022-07-29T03:48:50;6.53;;;5.93;;
1779;SDS011;10019;46.670;14.260;2022-07-29T03:51:24;13.83;;;6.40;;
1779;SDS011;10019;46.670;14.260;2022-07-29T03:53:56;7.03;;;6.33;;
1779;SDS011;10019;46.670;14.260;2022-07-29T03:56:28;8.20;;;7.23;;
1779;SDS011;10019;46.670;14.260;2022-07-29T03:59:01;6.60;;;6.00;;
1779;SDS011;10019;46.670;14.260;2022-07-29T04:01:33;7.80;;;6.57;;
1779;SDS011;10019;46.670;14.260;2022-07-29T04:04:06;7.50;;;6.73;;
1779;SDS011;10019;46.670;14.260;2022-07-29T04:06:39;6.90;;;6.30;;
1779;SDS011;10019;46.670;14.260;2022-07-29T04:09:11;7.83;;;6.97;;
1779;SDS011;10019;46.670;14.260;2022-07-29T04:11:43;8.00;;;7.20;;
1779;SDS011;10019;46.670;14.260;2022-07-29T04:14:15;9.57;;;7.37;;
1779;SDS011;10019;46.670;14.260;2022-07-29T04:16:46;12.47;;;6.97;;
1779;SDS011;10019;46.670;14.260;2022-07-29T04:19:19;8.67;;;7.73;;
1779;SDS011;10019;46.670;14.260;2022-07-29T04:21:51;9.07;;;7.40;;
1779;SDS011;10019;46.670;14.260;2022-07-29T04:24:23;7.20;;;6.50;;
1779;SDS011;10019;46.670;14.260;2022-07-29T04:26:55;15.50;;;8.00;;
1779;SDS011;10019;46.670;14.260;2022-07-29T04:29:26;7.80;;;7.07;;
1779;SDS011;10019;46.670;14.260;2022-07-29T04:31:58;8.27;;;7.37;;
1779;SDS011;10019;46.670;14.260;2022-07-29T04:34:31;8.37;;;7.57;;
1779;SDS011;10019;46.670;14.260;2022-07-29T04:37:03;8.53;;;7.67;;
1779;SDS011;10019;46.670;14.260;2022-07-29T04:39:34;9.20;;;8.00;;
1779;SDS011;10019;46.670;14.260;2022-07-29T04:42:06;8.40;;;7.03;;
1779;SDS011;10019;46.670;14.260;2022-07-29T04:44:38;7.77;;;6.97;;
1779;SDS011;10019;46.670;14.260;2022-07-29T04:47:09;9.30;;;7.90;;
1779;SDS011;10019;46.670;14.260;2022-07-29T04:49:42;9.70;;;8.30;;
1779;SDS011;10019;46.670;14.260;2022-07-29T04:52:14;7.70;;;6.83;;
1779;SDS011;10019;46.670;14.260;2022-07-29T04:54:46;8.70;;;7.90;;
1779;SDS011;10019;46.670;14.260;2022-07-29T04:57:17;9.23;;;8.23;;
1779;SDS011;10019;46.670;14.260;2022-07-29T04:59:49;7.63;;;6.80;;
1779;SDS011;10019;46.670;14.260;2022-07-29T05:02:21;7.80;;;7.07;;
1779;SDS011;10019;46.670;14.260;2022-07-29T05:04:54;8.40;;;7.43;;
1779;SDS011;10019;46.670;14.260;2022-07-29T05:07:26;8.97;;;8.07;;
1779;SDS011;10019;46.670;14.260;2022-07-29T05:09:57;8.37;;;7.67;;
1779;SDS011;10019;46.670;14.260;2022-07-29T05:12:29;8.73;;;7.83;;
1779;SDS011;10019;46.670;14.260;2022-07-29T05:15:01;9.00;;;8.10;;
1779;SDS011;10019;46.670;14.260;2022-07-29T05:17:32;7.80;;;7.10;;
1779;SDS011;10019;46.670;14.260;2022-07-29T05:20:06;10.40;;;7.83;;
1779;SDS011;10019;46.670;14.260;2022-07-29T05:22:39;8.83;;;8.03;;
1779;SDS011;10019;46.670;14.260;2022-07-29T05:25:10;8.73;;;7.83;;
1779;SDS011;10019;46.670;14.260;2022-07-29T05:27:42;8.17;;;7.47;;
1779;SDS011;10019;46.670;14.260;2022-07-29T05:30:14;8.10;;;7.20;;
1779;SDS011;10019;46.670;14.260;2022-07-29T05:32:46;7.43;;;6.73;;
1779;SDS011;10019;46.670;14.260;2022-07-29T05:35:19;9.00;;;8.10;;
1779;SDS011;10019;46.670;14.260;2022-07-29T05:37:51;8.40;;;7.60;;
1779;SDS011;10019;46.670;14.260;2022-07-29T05:40:23;8.33;;;7.57;;
1779;SDS011;10019;46.670;14.260;2022-07-29T05:42:55;8.80;;;7.60;;
1779;SDS011;10019;46.670;14.260;2022-07-29T05:45:27;7.77;;;7.07;;
1779;SDS011;10019;46.670;14.260;2022-07-29T05:47:59;7.20;;;6.50;;
1779;SDS011;10019;46.670;14.260;2022-07-29T05:50:31;8.47;;;7.77;;
1779;SDS011;10019;46.670;14.260;2022-07-29T05:53:03;7.97;;;7.17;;
1779;SDS011;10019;46.670;14.260;2022-07-29T05:55:35;7.37;;;6.77;;
1779;SDS011;10019;46.670;14.260;2022-07-29T05:58:06;8.20;;;6.70;;
1779;SDS011;10019;46.670;14.260;2022-07-29T06:00:38;7.10;;;6.47;;
1779;SDS011;10019;46.670;14.260;2022-07-29T06:03:10;6.63;;;6.03;;
1779;SDS011;10019;46.670;14.260;2022-07-29T06:05:43;7.23;;;6.53;;
1779;SDS011;10019;46.670;14.260;2022-07-29T06:08:15;6.50;;;5.90;;
1779;SDS011;10019;46.670;14.260;2022-07-29T06:10:47;6.63;;;6.00;;
1779;SDS011;10019;46.670;14.260;2022-07-29T06:13:19;6.67;;;6.17;;
1779;SDS011;10019;46.670;14.260;2022-07-29T06:15:50;7.20;;;6.60;;
1779;SDS011;10019;46.670;14.260;2022-07-29T06:18:22;7.17;;;6.47;;
1779;SDS011;10019;46.670;14.260;2022-07-29T06:20:55;7.47;;;6.87;;
1779;SDS011;10019;46.670;14.260;2022-07-29T06:23:27;7.30;;;6.47;;
1779;SDS011;10019;46.670;14.260;2022-07-29T06:25:59;7.13;;;6.27;;
1779;SDS011;10019;46.670;14.260;2022-07-29T06:28:32;6.83;;;6.23;;
1779;SDS011;10019;46.670;14.260;2022-07-29T06:31:04;6.90;;;6.20;;
1779;SDS011;10019;46.670;14.260;2022-07-29T06:33:36;6.83;;;6.10;;
1779;SDS011;10019;46.670;14.260;2022-07-29T06:36:09;6.37;;;5.77;;
1779;SDS011;10019;46.670;14.260;2022-07-29T06:38:41;6.93;;;6.20;;
1779;SDS011;10019;46.670;14.260;2022-07-29T06:41:13;7.70;;;6.60;;
1779;SDS011;10019;46.670;14.260;2022-07-29T06:43:46;7.00;;;6.40;;
1779;SDS011;10019;46.670;14.260;2022-07-29T06:46:18;6.80;;;6.20;;
1779;SDS011;10019;46.670;14.260;2022-07-29T06:48:51;7.67;;;6.93;;
1779;SDS011;10019;46.670;14.260;2022-07-29T06:51:24;7.60;;;6.90;;
1779;SDS011;10019;46.670;14.260;2022-07-29T06:53:57;7.83;;;6.50;;
1779;SDS011;10019;46.670;14.260;2022-07-29T06:56:29;6.70;;;6.00;;
1779;SDS011;10019;46.670;14.260;2022-07-29T06:59:01;7.23;;;6.53;;
1779;SDS011;10019;46.670;14.260;2022-07-29T07:01:33;7.60;;;6.57;;
1779;SDS011;10019;46.670;14.260;2022-07-29T07:04:04;6.50;;;6.00;;
1779;SDS011;10019;46.670;14.260;2022-07-29T07:06:37;7.30;;;6.60;;
1779;SDS011;10019;46.670;14.260;2022-07-29T07:09:09;6.90;;;6.20;;
1779;SDS011;10019;46.670;14.260;2022-07-29T07:11:41;7.40;;;6.37;;
1779;SDS011;10019;46.670;14.260;2022-07-29T07:14:13;7.77;;;6.50;;
1779;SDS011;10019;46.670;14.260;2022-07-29T07:16:44;7.80;;;6.80;;
1779;SDS011;10019;46.670;14.260;2022-07-29T07:19:16;6.70;;;6.10;;
1779;SDS011;10019;46.670;14.260;2022-07-29T07:32:17;6.93;;;6.33;;
1779;SDS011;10019;46.670;14.260;2022-07-29T07:34:49;7.60;;;6.90;;
1779;SDS011;10019;46.670;14.260;2022-07-29T07:37:21;6.10;;;5.60;;
1779;SDS011;10019;46.670;14.260;2022-07-29T07:39:54;8.60;;;7.20;;
1779;SDS011;10019;46.670;14.260;2022-07-29T07:42:26;7.20;;;6.50;;
1779;SDS011;10019;46.670;14.260;2022-07-29T07:44:58;7.47;;;6.30;;
1779;SDS011;10019;46.670;14.260;2022-07-29T07:47:31;6.87;;;6.20;;
1779;SDS011;10019;46.670;14.260;2022-07-29T07:50:03;7.00;;;6.40;;
1779;SDS011;10019;46.670;14.260;2022-07-29T07:52:40;6.93;;;6.33;;
1779;SDS011;10019;46.670;14.260;2022-07-29T07:55:17;7.70;;;6.80;;
1779;SDS011;10019;46.670;14.260;2022-07-29T07:57:49;7.20;;;6.37;;
1779;SDS011;10019;46.670;14.260;2022-07-29T08:00:21;7.43;;;6.57;;
1779;SDS011;10019;46.670;14.260;2022-07-29T08:02:54;7.20;;;6.60;;
1779;SDS011;10019;46.670;14.260;2022-07-29T08:05:26;6.57;;;5.97;;
1779;SDS011;10019;46.670;14.260;2022-07-29T08:07:58;7.00;;;6.40;;
1779;SDS011;10019;46.670;14.260;2022-07-29T08:10:29;7.47;;;6.87;;
1779;SDS011;10019;46.670;14.260;2022-07-29T08:13:19;7.23;;;6.63;;
1779;SDS011;10019;46.670;14.260;2022-07-29T08:15:51;8.90;;;7.27;;
1779;SDS011;10019;46.670;14.260;2022-07-29T08:18:29;9.30;;;7.40;;
1779;SDS011;10019;46.670;14.260;2022-07-29T08:21:02;9.20;;;6.83;;
1779;SDS011;10019;46.670;14.260;2022-07-29T08:23:33;7.70;;;6.87;;
1779;SDS011;10019;46.670;14.260;2022-07-29T08:26:08;8.37;;;7.43;;
1779;SDS011;10019;46.670;14.260;2022-07-29T08:28:42;7.63;;;6.93;;
1779;SDS011;10019;46.670;14.260;2022-07-29T08:31:16;6.60;;;6.00;;
1779;SDS011;10019;46.670;14.260;2022-07-29T08:33:49;7.73;;;7.07;;
1779;SDS011;10019;46.670;14.260;2022-07-29T08:36:21;7.80;;;6.77;;
1779;SDS011;10019;46.670;14.260;2022-07-29T08:38:53;8.20;;;7.37;;
1779;SDS011;10019;46.670;14.260;2022-07-29T08:41:25;8.23;;;7.40;;
1779;SDS011;10019;46.670;14.260;2022-07-29T08:43:57;8.03;;;7.23;;
1779;SDS011;10019;46.670;14.260;2022-07-29T08:46:29;8.00;;;7.20;;
1779;SDS011;10019;46.670;14.260;2022-07-29T08:49:02;7.97;;;6.93;;
1779;SDS011;10019;46.670;14.260;2022-07-29T08:51:33;8.27;;;7.57;;
1779;SDS011;10019;46.670;14.260;2022-07-29T08:54:08;7.53;;;6.80;;
1779;SDS011;10019;46.670;14.260;2022-07-29T08:56:40;7.00;;;6.47;;
1779;SDS011;10019;46.670;14.260;2022-07-29T08:59:11;7.13;;;6.53;;
1779;SDS011;10019;46.670;14.260;2022-07-29T09:01:44;7.63;;;6.97;;
1779;SDS011;10019;46.670;14.260;2022-07-29T09:04:18;7.57;;;6.97;;
1779;SDS011;10019;46.670;14.260;2022-07-29T09:06:51;8.50;;;7.70;;
1779;SDS011;10019;46.670;14.260;2022-07-29T09:09:23;7.60;;;7.00;;
1779;SDS011;10019;46.670;14.260;2022-07-29T09:11:54;8.20;;;7.40;;
1779;SDS011;10019;46.670;14.260;2022-07-29T09:14:26;7.00;;;6.40;;
1779;SDS011;10019;46.670;14.260;2022-07-29T09:16:58;7.63;;;6.93;;
1779;SDS011;10019;46.670;14.260;2022-07-29T09:19:31;8.13;;;7.33;;
1779;SDS011;10019;46.670;14.260;2022-07-29T09:22:05;7.53;;;6.83;;
1779;SDS011;10019;46.670;14.260;2022-07-29T09:24:40;11.20;;;6.13;;
1779;SDS011;10019;46.670;14.260;2022-07-29T09:27:20;6.70;;;6.07;;
1779;SDS011;10019;46.670;14.260;2022-07-29T09:29:56;6.67;;;5.97;;
1779;SDS011;10019;46.670;14.260;2022-07-29T09:32:29;6.57;;;5.90;;
1779;SDS011;10019;46.670;14.260;2022-07-29T09:35:21;7.57;;;6.87;;
1779;SDS011;10019;46.670;14.260;2022-07-29T09:37:54;7.30;;;6.70;;
1779;SDS011;10019;46.670;14.260;2022-07-29T09:40:27;6.60;;;6.00;;
1779;SDS011;10019;46.670;14.260;2022-07-29T09:42:59;7.07;;;6.50;;
1779;SDS011;10019;46.670;14.260;2022-07-29T09:45:41;6.63;;;6.03;;
1779;SDS011;10019;46.670;14.260;2022-07-29T09:48:13;7.10;;;6.33;;
1779;SDS011;10019;46.670;14.260;2022-07-29T09:50:47;7.00;;;6.40;;
1779;SDS011;10019;46.670;14.260;2022-07-29T09:53:29;7.00;;;6.40;;
1779;SDS011;10019;46.670;14.260;2022-07-29T09:56:02;7.10;;;6.50;;
1779;SDS011;10019;46.670;14.260;2022-07-29T09:58:34;7.43;;;6.73;;
1779;SDS011;10019;46.670;14.260;2022-07-29T10:01:06;6.87;;;6.30;;
1779;SDS011;10019;46.670;14.260;2022-07-29T10:03:49;7.50;;;6.73;;
1779;SDS011;10019;46.670;14.260;2022-07-29T10:06:23;7.57;;;6.83;;
1779;SDS011;10019;46.670;14.260;2022-07-29T10:09:01;7.73;;;6.20;;
1779;SDS011;10019;46.670;14.260;2022-07-29T10:11:38;7.40;;;6.70;;
1779;SDS011;10019;46.670;14.260;2022-07-29T10:14:09;8.80;;;7.43;;
1779;SDS011;10019;46.670;14.260;2022-07-29T10:16:41;10.07;;;7.83;;
1779;SDS011;10019;46.670;14.260;2022-07-29T10:19:14;7.53;;;6.70;;
1779;SDS011;10019;46.670;14.260;2022-07-29T10:21:47;9.53;;;8.40;;
1779;SDS011;10019;46.670;14.260;2022-07-29T10:24:19;7.70;;;6.97;;
1779;SDS011;10019;46.670;14.260;2022-07-29T10:26:51;7.73;;;7.03;;
1779;SDS011;10019;46.670;14.260;2022-07-29T10:29:23;7.27;;;6.67;;
1779;SDS011;10019;46.670;14.260;2022-07-29T10:31:58;7.50;;;6.90;;
1779;SDS011;10019;46.670;14.260;2022-07-29T10:34:46;6.80;;;6.30;;
1779;SDS011;10019;46.670;14.260;2022-07-29T10:37:33;7.37;;;6.77;;
1779;SDS011;10019;46.670;14.260;2022-07-29T10:40:16;8.27;;;6.70;;
1779;SDS011;10019;46.670;14.260;2022-07-29T10:43:14;6.50;;;6.00;;
1779;SDS011;10019;46.670;14.260;2022-07-29T10:45:49;7.10;;;6.50;;
1779;SDS011;10019;46.670;14.260;2022-07-29T10:48:27;6.90;;;6.30;;
1779;SDS011;10019;46.670;14.260;2022-07-29T10:50:59;7.47;;;6.77;;
1779;SDS011;10019;46.670;14.260;2022-07-29T10:53:48;6.27;;;5.73;;
1779;SDS011;10019;46.670;14.260;2022-07-29T10:56:24;7.93;;;7.27;;
1779;SDS011;10019;46.670;14.260;2022-07-29T11:01:58;7.20;;;6.60;;
1779;SDS011;10019;46.670;14.260;2022-07-29T11:07:33;8.03;;;6.10;;
1779;SDS011;10019;46.670;14.260;2022-07-29T11:10:25;8.33;;;6.80;;
1779;SDS011;10019;46.670;14.260;2022-07-29T11:12:57;9.00;;;6.53;;
1779;SDS011;10019;46.670;14.260;2022-07-29T11:15:29;6.60;;;6.10;;
1779;SDS011;10019;46.670;14.260;2022-07-29T11:18:23;7.73;;;6.80;;
1779;SDS011;10019;46.670;14.260;2022-07-29T11:20:55;9.13;;;6.30;;
1779;SDS011;10019;46.670;14.260;2022-07-29T11:23:27;6.60;;;6.07;;
1779;SDS011;10019;46.670;14.260;2022-07-29T11:26:17;7.17;;;6.53;;
1779;SDS011;10019;46.670;14.260;2022-07-29T11:28:57;7.33;;;6.73;;
1779;SDS011;10019;46.670;14.260;2022-07-29T11:31:33;7.23;;;6.63;;
1779;SDS011;10019;46.670;14.260;2022-07-29T11:34:16;7.10;;;6.50;;
1779;SDS011;10019;46.670;14.260;2022-07-29T11:42:50;6.37;;;5.87;;
1779;SDS011;10019;46.670;14.260;2022-07-29T11:45:25;7.40;;;6.60;;
1779;SDS011;10019;46.670;14.260;2022-07-29T11:48:02;6.80;;;6.20;;
1779;SDS011;10019;46.670;14.260;2022-07-29T11:50:35;6.60;;;6.10;;
1779;SDS011;10019;46.670;14.260;2022-07-29T11:53:10;6.67;;;6.17;;
1779;SDS011;10019;46.670;14.260;2022-07-29T11:55:43;6.80;;;6.30;;
1779;SDS011;10019;46.670;14.260;2022-07-29T11:58:16;6.90;;;5.70;;
1779;SDS011;10019;46.670;14.260;2022-07-29T12:00:53;6.50;;;6.00;;
1779;SDS011;10019;46.670;14.260;2022-07-29T12:03:25;6.80;;;6.20;;
1779;SDS011;10019;46.670;14.260;2022-07-29T12:05:58;5.77;;;5.23;;
1779;SDS011;10019;46.670;14.260;2022-07-29T12:08:29;6.87;;;6.27;;
1779;SDS011;10019;46.670;14.260;2022-07-29T12:11:01;6.17;;;5.67;;
1779;SDS011;10019;46.670;14.260;2022-07-29T12:13:39;6.80;;;6.20;;
1779;SDS011;10019;46.670;14.260;2022-07-29T12:16:10;5.83;;;5.33;;
1779;SDS011;10019;46.670;14.260;2022-07-29T12:18:42;6.23;;;5.73;;
1779;SDS011;10019;46.670;14.260;2022-07-29T12:21:14;6.10;;;5.53;;
1779;SDS011;10019;46.670;14.260;2022-07-29T12:23:51;6.93;;;6.20;;
1779;SDS011;10019;46.670;14.260;2022-07-29T12:26:23;5.90;;;5.40;;
1779;SDS011;10019;46.670;14.260;2022-07-29T12:28:56;6.50;;;5.97;;
1779;SDS011;10019;46.670;14.260;2022-07-29T12:31:28;6.07;;;5.57;;
1779;SDS011;10019;46.670;14.260;2022-07-29T12:34:00;6.43;;;5.93;;
1779;SDS011;10019;46.670;14.260;2022-07-29T12:36:31;5.70;;;5.20;;
1779;SDS011;10019;46.670;14.260;2022-07-29T12:39:03;6.47;;;5.87;;
1779;SDS011;10019;46.670;14.260;2022-07-29T12:41:36;6.13;;;5.63;;
1779;SDS011;10019;46.670;14.260;2022-07-29T12:44:09;5.53;;;5.13;;
1779;SDS011;10019;46.670;14.260;2022-07-29T12:46:41;6.90;;;6.30;;
1779;SDS011;10019;46.670;14.260;2022-07-29T12:49:20;5.90;;;5.50;;
1779;SDS011;10019;46.670;14.260;2022-07-29T12:51:52;6.40;;;5.90;;
1779;SDS011;10019;46.670;14.260;2022-07-29T12:54:24;7.37;;;5.50;;
1779;SDS011;10019;46.670;14.260;2022-07-29T12:56:57;6.13;;;5.63;;
1779;SDS011;10019;46.670;14.260;2022-07-29T12:59:31;7.57;;;6.07;;
1779;SDS011;10019;46.670;14.260;2022-07-29T13:02:03;6.20;;;5.70;;
1779;SDS011;10019;46.670;14.260;2022-07-29T13:04:34;6.30;;;5.80;;
1779;SDS011;10019;46.670;14.260;2022-07-29T13:07:06;6.13;;;5.67;;
1779;SDS011;10019;46.670;14.260;2022-07-29T13:09:38;5.93;;;5.43;;
1779;SDS011;10019;46.670;14.260;2022-07-29T13:12:12;6.00;;;5.50;;
1779;SDS011;10019;46.670;14.260;2022-07-29T13:14:46;6.80;;;6.20;;
1779;SDS011;10019;46.670;14.260;2022-07-29T13:17:19;6.80;;;6.20;;
1779;SDS011;10019;46.670;14.260;2022-07-29T13:19:53;6.37;;;5.77;;
1779;SDS011;10019;46.670;14.260;2022-07-29T13:22:36;6.30;;;5.80;;
1779;SDS011;10019;46.670;14.260;2022-07-29T13:25:07;7.00;;;6.20;;
1779;SDS011;10019;46.670;14.260;2022-07-29T13:27:40;6.80;;;6.20;;
1779;SDS011;10019;46.670;14.260;2022-07-29T13:30:16;6.60;;;6.10;;
1779;SDS011;10019;46.670;14.260;2022-07-29T13:32:47;6.53;;;6.03;;
1779;SDS011;10019;46.670;14.260;2022-07-29T13:35:19;6.10;;;5.60;;
1779;SDS011;10019;46.670;14.260;2022-07-29T13:37:51;6.57;;;6.00;;
1779;SDS011;10019;46.670;14.260;2022-07-29T13:40:23;7.00;;;6.40;;
1779;SDS011;10019;46.670;14.260;2022-07-29T13:42:55;6.40;;;5.90;;
1779;SDS011;10019;46.670;14.260;2022-07-29T13:45:28;7.40;;;6.80;;
1779;SDS011;10019;46.670;14.260;2022-07-29T13:48:00;6.50;;;5.90;;
1779;SDS011;10019;46.670;14.260;2022-07-29T13:50:32;5.97;;;5.47;;
1779;SDS011;10019;46.670;14.260;2022-07-29T13:53:03;6.23;;;5.63;;
1779;SDS011;10019;46.670;14.260;2022-07-29T13:55:35;6.73;;;6.23;;
1779;SDS011;10019;46.670;14.260;2022-07-29T13:58:07;6.87;;;5.83;;
1779;SDS011;10019;46.670;14.260;2022-07-29T14:00:40;6.40;;;5.90;;
1779;SDS011;10019;46.670;14.260;2022-07-29T14:03:11;5.43;;;5.03;;
1779;SDS011;10019;46.670;14.260;2022-07-29T14:05:43;6.70;;;6.10;;
1779;SDS011;10019;46.670;14.260;2022-07-29T14:08:15;6.20;;;5.73;;
1779;SDS011;10019;46.670;14.260;2022-07-29T14:10:46;6.03;;;5.63;;
1779;SDS011;10019;46.670;14.260;2022-07-29T14:13:18;5.93;;;5.53;;
1779;SDS011;10019;46.670;14.260;2022-07-29T14:15:51;6.60;;;6.00;;
1779;SDS011;10019;46.670;14.260;2022-07-29T14:18:23;6.13;;;5.63;;
1779;SDS011;10019;46.670;14.260;2022-07-29T14:20:55;6.10;;;5.60;;
1779;SDS011;10019;46.670;14.260;2022-07-29T14:23:28;6.03;;;5.53;;
1779;SDS011;10019;46.670;14.260;2022-07-29T14:25:59;6.23;;;5.63;;
1779;SDS011;10019;46.670;14.260;2022-07-29T14:28:31;6.27;;;5.77;;
1779;SDS011;10019;46.670;14.260;2022-07-29T14:31:04;6.23;;;5.53;;
1779;SDS011;10019;46.670;14.260;2022-07-29T14:33:36;6.23;;;5.73;;
1779;SDS011;10019;46.670;14.260;2022-07-29T14:36:07;8.27;;;5.77;;
1779;SDS011;10019;46.670;14.260;2022-07-29T14:38:40;6.30;;;5.63;;
1779;SDS011;10019;46.670;14.260;2022-07-29T14:41:11;6.20;;;5.63;;
1779;SDS011;10019;46.670;14.260;2022-07-29T14:43:43;7.00;;;6.50;;
1779;SDS011;10019;46.670;14.260;2022-07-29T14:46:16;6.10;;;5.60;;
1779;SDS011;10019;46.670;14.260;2022-07-29T14:48:48;6.00;;;5.50;;
1779;SDS011;10019;46.670;14.260;2022-07-29T14:51:19;6.07;;;5.67;;
1779;SDS011;10019;46.670;14.260;2022-07-29T14:53:51;6.13;;;5.63;;
1779;SDS011;10019;46.670;14.260;2022-07-29T14:56:23;7.67;;;6.70;;
1779;SDS011;10019;46.670;14.260;2022-07-29T14:58:55;6.60;;;6.00;;
1779;SDS011;10019;46.670;14.260;2022-07-29T15:01:28;7.00;;;6.50;;
1779;SDS011;10019;46.670;14.260;2022-07-29T15:04:00;7.43;;;6.80;;
1779;SDS011;10019;46.670;14.260;2022-07-29T15:06:32;7.20;;;6.60;;
1779;SDS011;10019;46.670;14.260;2022-07-29T15:09:04;5.97;;;5.47;;
1779;SDS011;10019;46.670;14.260;2022-07-29T15:11:35;6.33;;;5.90;;
1779;SDS011;10019;46.670;14.260;2022-07-29T15:14:07;7.43;;;5.90;;
1779;SDS011;10019;46.670;14.260;2022-07-29T15:16:40;6.93;;;6.27;;
1779;SDS011;10019;46.670;14.260;2022-07-29T15:19:12;6.80;;;6.20;;
1779;SDS011;10019;46.670;14.260;2022-07-29T15:21:44;6.07;;;5.57;;
1779;SDS011;10019;46.670;14.260;2022-07-29T15:24:16;8.53;;;7.80;;
1779;SDS011;10019;46.670;14.260;2022-07-29T15:26:48;6.30;;;5.70;;
1779;SDS011;10019;46.670;14.260;2022-07-29T15:29:19;6.57;;;5.93;;
1779;SDS011;10019;46.670;14.260;2022-07-29T15:31:52;6.37;;;5.77;;
1779;SDS011;10019;46.670;14.260;2022-07-29T15:34:24;6.00;;;5.50;;
1779;SDS011;10019;46.670;14.260;2022-07-29T15:36:56;6.50;;;6.00;;
1779;SDS011;10019;46.670;14.260;2022-07-29T15:39:28;6.13;;;5.63;;
1779;SDS011;10019;46.670;14.260;2022-07-29T15:41:59;7.03;;;6.43;;
1779;SDS011;10019;46.670;14.260;2022-07-29T15:44:32;6.97;;;6.37;;
1779;SDS011;10019;46.670;14.260;2022-07-29T15:47:05;8.07;;;7.27;;